sensor_id;sensor_type;location;lat;lon;timestamp;P1;durP1;ratioP1;P2;durP2;ratioP2
61756;SDS011;57225;61.460;24.060;2024-01-30T00:01:17;19.02;;;3.25;;
61756;SDS011;57225;61.460;24.060;2024-01-30T00:04:02;13.95;;;2.50;;
61756;SDS011;57225;61.460;24.060;2024-01-30T00:06:46;18.85;;;3.03;;
61756;SDS011;57225;61.460;24.060;2024-01-30T00:09:31;16.58;;;2.35;;
61756;SDS011;57225;61.460;24.060;2024-01-30T00:12:15;17.48;;;2.47;;
61756;SDS011;57225;61.460;24.060;2024-01-30T00:15:00;22.17;;;3.65;;
61756;SDS011;57225;61.460;24.060;2024-01-30T00:17:45;14.63;;;2.30;;
61756;SDS011;57225;61.460;24.060;2024-01-30T00:20:30;19.55;;;2.25;;
61756;SDS011;57225;61.460;24.060;2024-01-30T00:23:14;22.15;;;2.92;;
61756;SDS011;57225;61.460;24.060;2024-01-30T00:25:59;16.05;;;2.65;;
61756;SDS011;57225;61.460;24.060;2024-01-30T00:28:44;13.15;;;2.13;;
61756;SDS011;57225;61.460;24.060;2024-01-30T00:31:28;19.10;;;2.78;;
61756;SDS011;57225;61.460;24.060;2024-01-30T00:34:13;14.38;;;2.17;;
61756;SDS011;57225;61.460;24.060;2024-01-30T00:36:58;14.88;;;2.58;;
61756;SDS011;57225;61.460;24.060;2024-01-30T00:39:42;16.15;;;2.60;;
61756;SDS011;57225;61.460;24.060;2024-01-30T00:42:27;16.10;;;2.50;;
61756;SDS011;57225;61.460;24.060;2024-01-30T00:45:15;19.13;;;3.10;;
61756;SDS011;57225;61.460;24.060;2024-01-30T00:48:00;26.45;;;2.65;;
61756;SDS011;57225;61.460;24.060;2024-01-30T00:50:44;14.07;;;3.22;;
61756;SDS011;57225;61.460;24.060;2024-01-30T00:53:29;8.63;;;1.92;;
61756;SDS011;57225;61.460;24.060;2024-01-30T00:56:13;14.55;;;2.53;;
61756;SDS011;57225;61.460;24.060;2024-01-30T00:58:57;17.60;;;2.65;;
61756;SDS011;57225;61.460;24.060;2024-01-30T01:01:42;14.65;;;2.75;;
61756;SDS011;57225;61.460;24.060;2024-01-30T01:04:27;18.83;;;2.20;;
61756;SDS011;57225;61.460;24.060;2024-01-30T01:07:11;14.23;;;2.58;;
61756;SDS011;57225;61.460;24.060;2024-01-30T01:09:56;15.20;;;2.72;;
61756;SDS011;57225;61.460;24.060;2024-01-30T01:12:41;17.65;;;2.80;;
61756;SDS011;57225;61.460;24.060;2024-01-30T01:15:26;13.25;;;2.88;;
61756;SDS011;57225;61.460;24.060;2024-01-30T01:18:10;15.90;;;3.20;;
61756;SDS011;57225;61.460;24.060;2024-01-30T01:20:55;14.73;;;2.80;;
61756;SDS011;57225;61.460;24.060;2024-01-30T01:23:39;14.90;;;2.78;;
61756;SDS011;57225;61.460;24.060;2024-01-30T01:26:23;13.93;;;2.60;;
61756;SDS011;57225;61.460;24.060;2024-01-30T01:29:08;19.52;;;3.20;;
61756;SDS011;57225;61.460;24.060;2024-01-30T01:31:55;16.90;;;3.00;;
61756;SDS011;57225;61.460;24.060;2024-01-30T01:34:39;18.05;;;2.90;;
61756;SDS011;57225;61.460;24.060;2024-01-30T01:37:24;18.80;;;3.35;;
61756;SDS011;57225;61.460;24.060;2024-01-30T01:40:10;13.82;;;2.70;;
61756;SDS011;57225;61.460;24.060;2024-01-30T01:42:55;16.45;;;3.00;;
61756;SDS011;57225;61.460;24.060;2024-01-30T01:45:39;21.88;;;3.08;;
61756;SDS011;57225;61.460;24.060;2024-01-30T01:48:24;15.80;;;2.78;;
61756;SDS011;57225;61.460;24.060;2024-01-30T01:51:09;11.85;;;2.60;;
61756;SDS011;57225;61.460;24.060;2024-01-30T01:53:54;17.35;;;2.90;;
61756;SDS011;57225;61.460;24.060;2024-01-30T01:56:39;14.68;;;2.67;;
61756;SDS011;57225;61.460;24.060;2024-01-30T01:59:24;10.15;;;2.30;;
61756;SDS011;57225;61.460;24.060;2024-01-30T02:02:09;15.00;;;2.55;;
61756;SDS011;57225;61.460;24.060;2024-01-30T02:04:57;13.70;;;2.75;;
61756;SDS011;57225;61.460;24.060;2024-01-30T02:07:42;10.55;;;2.40;;
61756;SDS011;57225;61.460;24.060;2024-01-30T02:10:27;16.70;;;2.75;;
61756;SDS011;57225;61.460;24.060;2024-01-30T02:13:12;17.67;;;2.50;;
61756;SDS011;57225;61.460;24.060;2024-01-30T02:15:56;11.80;;;2.35;;
61756;SDS011;57225;61.460;24.060;2024-01-30T02:18:41;12.52;;;2.58;;
61756;SDS011;57225;61.460;24.060;2024-01-30T02:21:28;12.67;;;2.73;;
61756;SDS011;57225;61.460;24.060;2024-01-30T02:24:13;18.98;;;3.28;;
61756;SDS011;57225;61.460;24.060;2024-01-30T02:26:58;14.73;;;2.90;;
61756;SDS011;57225;61.460;24.060;2024-01-30T02:29:42;15.63;;;3.22;;
61756;SDS011;57225;61.460;24.060;2024-01-30T02:32:27;12.15;;;2.28;;
61756;SDS011;57225;61.460;24.060;2024-01-30T02:35:11;14.30;;;2.90;;
61756;SDS011;57225;61.460;24.060;2024-01-30T02:37:56;13.57;;;2.67;;
61756;SDS011;57225;61.460;24.060;2024-01-30T02:40:40;12.25;;;2.47;;
61756;SDS011;57225;61.460;24.060;2024-01-30T02:43:25;13.18;;;2.53;;
61756;SDS011;57225;61.460;24.060;2024-01-30T02:46:09;18.50;;;2.80;;
61756;SDS011;57225;61.460;24.060;2024-01-30T02:48:54;11.02;;;2.22;;
61756;SDS011;57225;61.460;24.060;2024-01-30T02:51:38;16.25;;;2.83;;
61756;SDS011;57225;61.460;24.060;2024-01-30T02:54:23;13.88;;;2.78;;
61756;SDS011;57225;61.460;24.060;2024-01-30T02:57:07;11.85;;;2.28;;
61756;SDS011;57225;61.460;24.060;2024-01-30T02:59:52;10.63;;;2.85;;
61756;SDS011;57225;61.460;24.060;2024-01-30T03:02:36;12.73;;;2.40;;
61756;SDS011;57225;61.460;24.060;2024-01-30T03:05:20;11.90;;;2.40;;
61756;SDS011;57225;61.460;24.060;2024-01-30T03:08:05;11.77;;;2.38;;
61756;SDS011;57225;61.460;24.060;2024-01-30T03:10:49;15.68;;;2.70;;
61756;SDS011;57225;61.460;24.060;2024-01-30T03:13:34;11.30;;;2.10;;
61756;SDS011;57225;61.460;24.060;2024-01-30T03:16:18;11.35;;;2.30;;
61756;SDS011;57225;61.460;24.060;2024-01-30T03:19:03;14.25;;;2.60;;
61756;SDS011;57225;61.460;24.060;2024-01-30T03:21:49;6.93;;;2.10;;
61756;SDS011;57225;61.460;24.060;2024-01-30T03:24:35;9.18;;;3.20;;
61756;SDS011;57225;61.460;24.060;2024-01-30T03:27:19;11.60;;;2.50;;
61756;SDS011;57225;61.460;24.060;2024-01-30T03:30:04;12.85;;;2.10;;
61756;SDS011;57225;61.460;24.060;2024-01-30T03:32:49;15.80;;;2.63;;
61756;SDS011;57225;61.460;24.060;2024-01-30T03:35:34;13.05;;;3.13;;
61756;SDS011;57225;61.460;24.060;2024-01-30T03:38:18;15.32;;;2.65;;
61756;SDS011;57225;61.460;24.060;2024-01-30T03:41:02;17.55;;;3.08;;
61756;SDS011;57225;61.460;24.060;2024-01-30T03:43:47;10.93;;;2.55;;
61756;SDS011;57225;61.460;24.060;2024-01-30T03:46:32;13.68;;;3.42;;
61756;SDS011;57225;61.460;24.060;2024-01-30T03:49:16;12.77;;;2.70;;
61756;SDS011;57225;61.460;24.060;2024-01-30T03:52:01;13.13;;;2.38;;
61756;SDS011;57225;61.460;24.060;2024-01-30T03:54:45;10.50;;;2.72;;
61756;SDS011;57225;61.460;24.060;2024-01-30T03:57:30;12.32;;;2.60;;
61756;SDS011;57225;61.460;24.060;2024-01-30T04:00:14;14.50;;;2.42;;
61756;SDS011;57225;61.460;24.060;2024-01-30T04:02:58;10.18;;;2.85;;
61756;SDS011;57225;61.460;24.060;2024-01-30T04:05:43;14.32;;;2.70;;
61756;SDS011;57225;61.460;24.060;2024-01-30T04:08:28;11.55;;;2.60;;
61756;SDS011;57225;61.460;24.060;2024-01-30T04:11:13;14.07;;;2.85;;
61756;SDS011;57225;61.460;24.060;2024-01-30T04:13:57;16.65;;;2.75;;
61756;SDS011;57225;61.460;24.060;2024-01-30T04:16:42;10.30;;;2.65;;
61756;SDS011;57225;61.460;24.060;2024-01-30T04:19:26;16.92;;;3.47;;
61756;SDS011;57225;61.460;24.060;2024-01-30T04:22:11;13.10;;;3.88;;
61756;SDS011;57225;61.460;24.060;2024-01-30T04:24:55;16.50;;;3.10;;
61756;SDS011;57225;61.460;24.060;2024-01-30T04:27:40;11.38;;;2.65;;
61756;SDS011;57225;61.460;24.060;2024-01-30T04:30:24;17.48;;;2.75;;
61756;SDS011;57225;61.460;24.060;2024-01-30T04:33:09;7.72;;;2.30;;
61756;SDS011;57225;61.460;24.060;2024-01-30T04:35:54;19.70;;;4.35;;
61756;SDS011;57225;61.460;24.060;2024-01-30T04:38:38;15.95;;;3.88;;
61756;SDS011;57225;61.460;24.060;2024-01-30T04:41:23;21.42;;;4.47;;
61756;SDS011;57225;61.460;24.060;2024-01-30T04:44:07;12.45;;;2.85;;
61756;SDS011;57225;61.460;24.060;2024-01-30T04:46:52;16.85;;;3.28;;
61756;SDS011;57225;61.460;24.060;2024-01-30T04:52:48;17.27;;;3.13;;
61756;SDS011;57225;61.460;24.060;2024-01-30T04:55:33;12.63;;;3.35;;
61756;SDS011;57225;61.460;24.060;2024-01-30T04:58:19;18.20;;;3.60;;
61756;SDS011;57225;61.460;24.060;2024-01-30T05:01:03;19.33;;;3.63;;
61756;SDS011;57225;61.460;24.060;2024-01-30T05:03:48;15.10;;;3.20;;
61756;SDS011;57225;61.460;24.060;2024-01-30T05:06:32;16.85;;;3.58;;
61756;SDS011;57225;61.460;24.060;2024-01-30T05:09:17;11.82;;;3.72;;
61756;SDS011;57225;61.460;24.060;2024-01-30T05:12:02;19.63;;;3.25;;
61756;SDS011;57225;61.460;24.060;2024-01-30T05:14:47;16.77;;;3.53;;
61756;SDS011;57225;61.460;24.060;2024-01-30T05:17:31;16.55;;;4.45;;
61756;SDS011;57225;61.460;24.060;2024-01-30T05:20:16;16.00;;;3.03;;
61756;SDS011;57225;61.460;24.060;2024-01-30T05:23:01;14.43;;;3.42;;
61756;SDS011;57225;61.460;24.060;2024-01-30T05:25:46;16.60;;;3.03;;
61756;SDS011;57225;61.460;24.060;2024-01-30T05:28:30;19.25;;;3.53;;
61756;SDS011;57225;61.460;24.060;2024-01-30T05:31:14;16.77;;;3.28;;
61756;SDS011;57225;61.460;24.060;2024-01-30T05:33:59;17.45;;;3.22;;
61756;SDS011;57225;61.460;24.060;2024-01-30T05:36:43;14.00;;;2.63;;
61756;SDS011;57225;61.460;24.060;2024-01-30T05:39:28;13.85;;;2.78;;
61756;SDS011;57225;61.460;24.060;2024-01-30T05:42:13;18.48;;;4.88;;
61756;SDS011;57225;61.460;24.060;2024-01-30T05:44:58;9.98;;;2.55;;
61756;SDS011;57225;61.460;24.060;2024-01-30T05:47:43;11.60;;;2.83;;
61756;SDS011;57225;61.460;24.060;2024-01-30T05:50:27;18.58;;;3.42;;
61756;SDS011;57225;61.460;24.060;2024-01-30T05:53:12;11.77;;;2.90;;
61756;SDS011;57225;61.460;24.060;2024-01-30T05:55:57;12.32;;;3.30;;
61756;SDS011;57225;61.460;24.060;2024-01-30T05:58:41;12.57;;;3.28;;
61756;SDS011;57225;61.460;24.060;2024-01-30T06:01:26;14.98;;;2.80;;
61756;SDS011;57225;61.460;24.060;2024-01-30T06:04:11;16.42;;;3.97;;
61756;SDS011;57225;61.460;24.060;2024-01-30T06:06:55;15.23;;;3.13;;
61756;SDS011;57225;61.460;24.060;2024-01-30T06:09:40;17.42;;;3.05;;
61756;SDS011;57225;61.460;24.060;2024-01-30T06:12:24;13.05;;;3.40;;
61756;SDS011;57225;61.460;24.060;2024-01-30T06:15:09;20.30;;;3.33;;
61756;SDS011;57225;61.460;24.060;2024-01-30T06:17:56;13.52;;;3.30;;
61756;SDS011;57225;61.460;24.060;2024-01-30T06:20:40;15.85;;;3.13;;
61756;SDS011;57225;61.460;24.060;2024-01-30T06:23:25;13.48;;;3.10;;
61756;SDS011;57225;61.460;24.060;2024-01-30T06:26:09;14.32;;;3.25;;
61756;SDS011;57225;61.460;24.060;2024-01-30T06:28:54;14.77;;;3.70;;
61756;SDS011;57225;61.460;24.060;2024-01-30T06:31:42;13.48;;;3.25;;
61756;SDS011;57225;61.460;24.060;2024-01-30T06:34:26;16.00;;;2.90;;
61756;SDS011;57225;61.460;24.060;2024-01-30T06:37:11;14.57;;;3.13;;
61756;SDS011;57225;61.460;24.060;2024-01-30T06:39:56;15.75;;;3.38;;
61756;SDS011;57225;61.460;24.060;2024-01-30T06:42:40;15.00;;;3.60;;
61756;SDS011;57225;61.460;24.060;2024-01-30T06:45:25;17.70;;;3.50;;
61756;SDS011;57225;61.460;24.060;2024-01-30T06:48:09;14.75;;;3.80;;
61756;SDS011;57225;61.460;24.060;2024-01-30T06:50:54;20.48;;;3.85;;
61756;SDS011;57225;61.460;24.060;2024-01-30T06:53:38;15.30;;;3.60;;
61756;SDS011;57225;61.460;24.060;2024-01-30T06:56:23;15.55;;;3.40;;
61756;SDS011;57225;61.460;24.060;2024-01-30T06:59:07;11.55;;;2.63;;
61756;SDS011;57225;61.460;24.060;2024-01-30T07:01:52;15.70;;;3.15;;
61756;SDS011;57225;61.460;24.060;2024-01-30T07:04:38;17.92;;;4.10;;
61756;SDS011;57225;61.460;24.060;2024-01-30T07:07:23;24.88;;;4.88;;
61756;SDS011;57225;61.460;24.060;2024-01-30T07:10:07;22.80;;;5.43;;
61756;SDS011;57225;61.460;24.060;2024-01-30T07:12:52;21.58;;;5.10;;
61756;SDS011;57225;61.460;24.060;2024-01-30T07:15:36;20.92;;;5.47;;
61756;SDS011;57225;61.460;24.060;2024-01-30T07:18:22;19.92;;;3.90;;
61756;SDS011;57225;61.460;24.060;2024-01-30T07:21:06;21.75;;;3.97;;
61756;SDS011;57225;61.460;24.060;2024-01-30T07:23:51;15.82;;;3.42;;
61756;SDS011;57225;61.460;24.060;2024-01-30T07:26:35;14.63;;;3.22;;
61756;SDS011;57225;61.460;24.060;2024-01-30T07:29:20;14.23;;;3.55;;
61756;SDS011;57225;61.460;24.060;2024-01-30T07:32:06;21.08;;;3.92;;
61756;SDS011;57225;61.460;24.060;2024-01-30T07:34:51;10.95;;;3.08;;
61756;SDS011;57225;61.460;24.060;2024-01-30T07:37:35;16.55;;;3.40;;
61756;SDS011;57225;61.460;24.060;2024-01-30T07:40:20;17.27;;;3.38;;
61756;SDS011;57225;61.460;24.060;2024-01-30T07:43:04;19.02;;;4.43;;
61756;SDS011;57225;61.460;24.060;2024-01-30T07:45:48;25.63;;;4.38;;
61756;SDS011;57225;61.460;24.060;2024-01-30T07:48:33;20.50;;;4.93;;
61756;SDS011;57225;61.460;24.060;2024-01-30T07:51:17;28.17;;;6.75;;
61756;SDS011;57225;61.460;24.060;2024-01-30T07:54:02;20.77;;;5.60;;
61756;SDS011;57225;61.460;24.060;2024-01-30T07:56:46;26.58;;;6.40;;
61756;SDS011;57225;61.460;24.060;2024-01-30T07:59:31;33.60;;;8.40;;
61756;SDS011;57225;61.460;24.060;2024-01-30T08:02:15;27.67;;;8.27;;
61756;SDS011;57225;61.460;24.060;2024-01-30T08:05:00;25.30;;;7.25;;
61756;SDS011;57225;61.460;24.060;2024-01-30T08:07:44;35.97;;;9.05;;
61756;SDS011;57225;61.460;24.060;2024-01-30T08:10:29;40.78;;;8.98;;
61756;SDS011;57225;61.460;24.060;2024-01-30T08:13:14;32.83;;;8.07;;
61756;SDS011;57225;61.460;24.060;2024-01-30T08:15:58;30.00;;;8.40;;
61756;SDS011;57225;61.460;24.060;2024-01-30T08:18:43;27.38;;;7.85;;
61756;SDS011;57225;61.460;24.060;2024-01-30T08:21:27;32.95;;;8.70;;
61756;SDS011;57225;61.460;24.060;2024-01-30T08:24:13;25.23;;;7.10;;
61756;SDS011;57225;61.460;24.060;2024-01-30T08:27:01;16.05;;;6.47;;
61756;SDS011;57225;61.460;24.060;2024-01-30T08:29:46;28.83;;;6.13;;
61756;SDS011;57225;61.460;24.060;2024-01-30T08:32:30;18.55;;;6.32;;
61756;SDS011;57225;61.460;24.060;2024-01-30T08:35:15;21.85;;;6.20;;
61756;SDS011;57225;61.460;24.060;2024-01-30T08:37:59;20.55;;;5.43;;
61756;SDS011;57225;61.460;24.060;2024-01-30T08:40:44;27.08;;;6.22;;
61756;SDS011;57225;61.460;24.060;2024-01-30T08:43:28;27.27;;;5.88;;
61756;SDS011;57225;61.460;24.060;2024-01-30T08:46:13;19.25;;;5.90;;
61756;SDS011;57225;61.460;24.060;2024-01-30T08:49:00;16.85;;;5.50;;
61756;SDS011;57225;61.460;24.060;2024-01-30T08:51:45;18.88;;;5.55;;
61756;SDS011;57225;61.460;24.060;2024-01-30T08:54:29;16.77;;;5.50;;
61756;SDS011;57225;61.460;24.060;2024-01-30T08:57:14;13.27;;;5.07;;
61756;SDS011;57225;61.460;24.060;2024-01-30T08:59:58;16.85;;;5.20;;
61756;SDS011;57225;61.460;24.060;2024-01-30T09:02:44;19.35;;;5.90;;
61756;SDS011;57225;61.460;24.060;2024-01-30T09:05:29;17.27;;;5.30;;
61756;SDS011;57225;61.460;24.060;2024-01-30T09:08:13;17.17;;;4.80;;
61756;SDS011;57225;61.460;24.060;2024-01-30T09:10:58;19.45;;;5.70;;
61756;SDS011;57225;61.460;24.060;2024-01-30T09:13:42;21.23;;;5.20;;
61756;SDS011;57225;61.460;24.060;2024-01-30T09:16:27;17.23;;;4.72;;
61756;SDS011;57225;61.460;24.060;2024-01-30T09:19:12;21.20;;;5.18;;
61756;SDS011;57225;61.460;24.060;2024-01-30T09:21:56;14.82;;;4.45;;
61756;SDS011;57225;61.460;24.060;2024-01-30T09:24:41;14.40;;;4.00;;
61756;SDS011;57225;61.460;24.060;2024-01-30T09:27:27;22.90;;;4.75;;
61756;SDS011;57225;61.460;24.060;2024-01-30T09:30:12;19.52;;;4.55;;
61756;SDS011;57225;61.460;24.060;2024-01-30T09:32:57;21.83;;;3.83;;
61756;SDS011;57225;61.460;24.060;2024-01-30T09:35:41;18.08;;;3.00;;
61756;SDS011;57225;61.460;24.060;2024-01-30T09:38:26;10.98;;;2.65;;
61756;SDS011;57225;61.460;24.060;2024-01-30T09:41:10;13.52;;;2.83;;
61756;SDS011;57225;61.460;24.060;2024-01-30T09:43:56;9.55;;;2.67;;
61756;SDS011;57225;61.460;24.060;2024-01-30T09:46:41;14.80;;;3.70;;
61756;SDS011;57225;61.460;24.060;2024-01-30T09:49:32;20.02;;;3.13;;
61756;SDS011;57225;61.460;24.060;2024-01-30T09:52:35;15.98;;;2.63;;
61756;SDS011;57225;61.460;24.060;2024-01-30T09:55:21;15.48;;;2.90;;
61756;SDS011;57225;61.460;24.060;2024-01-30T09:58:06;11.30;;;2.67;;
61756;SDS011;57225;61.460;24.060;2024-01-30T10:00:50;15.25;;;3.03;;
61756;SDS011;57225;61.460;24.060;2024-01-30T10:03:35;15.38;;;3.20;;
61756;SDS011;57225;61.460;24.060;2024-01-30T10:06:19;11.35;;;2.88;;
61756;SDS011;57225;61.460;24.060;2024-01-30T10:09:05;9.90;;;2.70;;
61756;SDS011;57225;61.460;24.060;2024-01-30T10:11:50;15.10;;;3.55;;
61756;SDS011;57225;61.460;24.060;2024-01-30T10:14:42;11.43;;;2.75;;
61756;SDS011;57225;61.460;24.060;2024-01-30T10:17:27;14.07;;;3.20;;
61756;SDS011;57225;61.460;24.060;2024-01-30T10:20:11;8.68;;;2.97;;
61756;SDS011;57225;61.460;24.060;2024-01-30T10:22:56;9.98;;;3.15;;
61756;SDS011;57225;61.460;24.060;2024-01-30T10:25:41;11.27;;;2.90;;
61756;SDS011;57225;61.460;24.060;2024-01-30T10:28:28;20.40;;;3.40;;
61756;SDS011;57225;61.460;24.060;2024-01-30T10:31:17;12.23;;;3.17;;
61756;SDS011;57225;61.460;24.060;2024-01-30T10:34:05;16.83;;;3.70;;
61756;SDS011;57225;61.460;24.060;2024-01-30T10:36:50;16.58;;;3.50;;
61756;SDS011;57225;61.460;24.060;2024-01-30T10:39:38;13.80;;;3.60;;
61756;SDS011;57225;61.460;24.060;2024-01-30T10:42:26;15.35;;;4.15;;
61756;SDS011;57225;61.460;24.060;2024-01-30T10:45:12;11.38;;;3.40;;
61756;SDS011;57225;61.460;24.060;2024-01-30T10:47:57;12.57;;;3.30;;
61756;SDS011;57225;61.460;24.060;2024-01-30T10:50:43;17.45;;;3.40;;
61756;SDS011;57225;61.460;24.060;2024-01-30T10:53:29;16.75;;;4.20;;
61756;SDS011;57225;61.460;24.060;2024-01-30T10:56:15;11.88;;;2.70;;
61756;SDS011;57225;61.460;24.060;2024-01-30T10:59:00;15.65;;;2.80;;
61756;SDS011;57225;61.460;24.060;2024-01-30T11:01:45;14.43;;;2.83;;
61756;SDS011;57225;61.460;24.060;2024-01-30T11:04:40;11.10;;;2.90;;
61756;SDS011;57225;61.460;24.060;2024-01-30T11:07:26;10.23;;;2.58;;
61756;SDS011;57225;61.460;24.060;2024-01-30T11:10:12;13.52;;;2.95;;
61756;SDS011;57225;61.460;24.060;2024-01-30T11:12:58;10.07;;;2.60;;
61756;SDS011;57225;61.460;24.060;2024-01-30T11:15:42;11.82;;;2.78;;
61756;SDS011;57225;61.460;24.060;2024-01-30T11:18:30;12.13;;;2.95;;
61756;SDS011;57225;61.460;24.060;2024-01-30T11:21:16;13.65;;;3.08;;
61756;SDS011;57225;61.460;24.060;2024-01-30T11:24:01;13.10;;;2.45;;
61756;SDS011;57225;61.460;24.060;2024-01-30T11:26:47;11.65;;;2.58;;
61756;SDS011;57225;61.460;24.060;2024-01-30T11:29:39;9.60;;;2.50;;
61756;SDS011;57225;61.460;24.060;2024-01-30T11:32:24;10.75;;;2.50;;
61756;SDS011;57225;61.460;24.060;2024-01-30T11:35:08;13.55;;;2.90;;
61756;SDS011;57225;61.460;24.060;2024-01-30T11:37:55;10.75;;;3.05;;
61756;SDS011;57225;61.460;24.060;2024-01-30T11:40:42;10.88;;;2.78;;
61756;SDS011;57225;61.460;24.060;2024-01-30T11:43:28;11.45;;;2.10;;
61756;SDS011;57225;61.460;24.060;2024-01-30T11:46:12;12.48;;;3.38;;
61756;SDS011;57225;61.460;24.060;2024-01-30T11:48:56;11.82;;;3.42;;
61756;SDS011;57225;61.460;24.060;2024-01-30T11:51:42;12.88;;;3.28;;
61756;SDS011;57225;61.460;24.060;2024-01-30T11:54:27;9.57;;;3.33;;
61756;SDS011;57225;61.460;24.060;2024-01-30T11:57:11;10.85;;;3.10;;
61756;SDS011;57225;61.460;24.060;2024-01-30T11:59:56;12.65;;;3.15;;
61756;SDS011;57225;61.460;24.060;2024-01-30T12:02:40;12.25;;;2.83;;
61756;SDS011;57225;61.460;24.060;2024-01-30T12:05:25;10.85;;;3.35;;
61756;SDS011;57225;61.460;24.060;2024-01-30T12:08:16;8.73;;;3.25;;
61756;SDS011;57225;61.460;24.060;2024-01-30T12:11:01;11.25;;;2.88;;
61756;SDS011;57225;61.460;24.060;2024-01-30T12:13:45;10.80;;;3.05;;
61756;SDS011;57225;61.460;24.060;2024-01-30T12:16:30;11.60;;;3.20;;
61756;SDS011;57225;61.460;24.060;2024-01-30T12:19:24;15.45;;;3.17;;
61756;SDS011;57225;61.460;24.060;2024-01-30T12:22:10;10.30;;;2.95;;
61756;SDS011;57225;61.460;24.060;2024-01-30T12:24:54;11.63;;;2.85;;
61756;SDS011;57225;61.460;24.060;2024-01-30T12:27:39;9.73;;;3.00;;
61756;SDS011;57225;61.460;24.060;2024-01-30T12:30:27;11.55;;;3.40;;
61756;SDS011;57225;61.460;24.060;2024-01-30T12:33:18;21.55;;;3.95;;
61756;SDS011;57225;61.460;24.060;2024-01-30T12:36:04;14.43;;;3.35;;
61756;SDS011;57225;61.460;24.060;2024-01-30T12:38:48;15.18;;;3.97;;
61756;SDS011;57225;61.460;24.060;2024-01-30T12:41:32;9.48;;;3.13;;
61756;SDS011;57225;61.460;24.060;2024-01-30T12:44:17;15.40;;;3.50;;
61756;SDS011;57225;61.460;24.060;2024-01-30T12:47:04;9.98;;;2.80;;
61756;SDS011;57225;61.460;24.060;2024-01-30T12:49:49;13.50;;;3.07;;
61756;SDS011;57225;61.460;24.060;2024-01-30T12:52:37;11.52;;;2.78;;
61756;SDS011;57225;61.460;24.060;2024-01-30T12:55:22;9.15;;;3.08;;
61756;SDS011;57225;61.460;24.060;2024-01-30T12:58:08;11.65;;;4.07;;
61756;SDS011;57225;61.460;24.060;2024-01-30T13:00:52;10.80;;;3.30;;
61756;SDS011;57225;61.460;24.060;2024-01-30T13:03:38;14.43;;;3.72;;
61756;SDS011;57225;61.460;24.060;2024-01-30T13:06:22;15.48;;;4.85;;
61756;SDS011;57225;61.460;24.060;2024-01-30T13:09:07;14.90;;;3.97;;
61756;SDS011;57225;61.460;24.060;2024-01-30T13:11:51;13.25;;;3.83;;
61756;SDS011;57225;61.460;24.060;2024-01-30T13:14:36;10.60;;;3.90;;
61756;SDS011;57225;61.460;24.060;2024-01-30T13:17:21;17.77;;;4.50;;
61756;SDS011;57225;61.460;24.060;2024-01-30T13:20:06;18.20;;;4.80;;
61756;SDS011;57225;61.460;24.060;2024-01-30T13:22:52;17.05;;;5.35;;
61756;SDS011;57225;61.460;24.060;2024-01-30T13:25:37;16.17;;;4.70;;
61756;SDS011;57225;61.460;24.060;2024-01-30T13:28:21;20.63;;;5.00;;
61756;SDS011;57225;61.460;24.060;2024-01-30T13:31:06;20.17;;;5.70;;
61756;SDS011;57225;61.460;24.060;2024-01-30T13:33:50;16.83;;;4.82;;
61756;SDS011;57225;61.460;24.060;2024-01-30T13:36:35;11.63;;;3.83;;
61756;SDS011;57225;61.460;24.060;2024-01-30T13:39:19;16.45;;;4.13;;
61756;SDS011;57225;61.460;24.060;2024-01-30T13:42:04;21.95;;;4.22;;
61756;SDS011;57225;61.460;24.060;2024-01-30T13:44:48;19.80;;;4.57;;
61756;SDS011;57225;61.460;24.060;2024-01-30T13:47:32;20.90;;;4.63;;
61756;SDS011;57225;61.460;24.060;2024-01-30T13:50:17;14.20;;;4.60;;
61756;SDS011;57225;61.460;24.060;2024-01-30T13:53:02;13.00;;;4.93;;
61756;SDS011;57225;61.460;24.060;2024-01-30T13:55:48;19.08;;;4.60;;
61756;SDS011;57225;61.460;24.060;2024-01-30T13:58:33;18.15;;;5.10;;
61756;SDS011;57225;61.460;24.060;2024-01-30T14:01:19;21.23;;;4.88;;
61756;SDS011;57225;61.460;24.060;2024-01-30T14:04:04;12.02;;;4.20;;
61756;SDS011;57225;61.460;24.060;2024-01-30T14:06:48;13.93;;;4.13;;
61756;SDS011;57225;61.460;24.060;2024-01-30T14:09:32;16.55;;;4.63;;
61756;SDS011;57225;61.460;24.060;2024-01-30T14:12:18;16.48;;;4.80;;
61756;SDS011;57225;61.460;24.060;2024-01-30T14:15:03;20.58;;;4.20;;
61756;SDS011;57225;61.460;24.060;2024-01-30T14:17:48;16.58;;;4.10;;
61756;SDS011;57225;61.460;24.060;2024-01-30T14:20:33;19.17;;;4.07;;
61756;SDS011;57225;61.460;24.060;2024-01-30T14:23:17;22.40;;;5.10;;
61756;SDS011;57225;61.460;24.060;2024-01-30T14:26:02;19.95;;;5.72;;
61756;SDS011;57225;61.460;24.060;2024-01-30T14:28:46;17.33;;;4.65;;
61756;SDS011;57225;61.460;24.060;2024-01-30T14:31:31;16.65;;;4.85;;
61756;SDS011;57225;61.460;24.060;2024-01-30T14:34:15;30.67;;;6.82;;
61756;SDS011;57225;61.460;24.060;2024-01-30T14:37:01;20.42;;;5.88;;
61756;SDS011;57225;61.460;24.060;2024-01-30T14:39:45;19.00;;;5.03;;
61756;SDS011;57225;61.460;24.060;2024-01-30T14:42:31;18.60;;;4.93;;
61756;SDS011;57225;61.460;24.060;2024-01-30T14:45:16;13.95;;;4.70;;
61756;SDS011;57225;61.460;24.060;2024-01-30T14:48:00;17.92;;;4.63;;
61756;SDS011;57225;61.460;24.060;2024-01-30T14:50:45;15.98;;;4.50;;
61756;SDS011;57225;61.460;24.060;2024-01-30T14:53:30;15.27;;;4.10;;
61756;SDS011;57225;61.460;24.060;2024-01-30T14:56:14;13.35;;;4.35;;
61756;SDS011;57225;61.460;24.060;2024-01-30T14:58:59;16.02;;;3.85;;
61756;SDS011;57225;61.460;24.060;2024-01-30T15:01:44;15.40;;;3.55;;
61756;SDS011;57225;61.460;24.060;2024-01-30T15:04:28;18.67;;;4.82;;
61756;SDS011;57225;61.460;24.060;2024-01-30T15:07:13;13.52;;;4.28;;
61756;SDS011;57225;61.460;24.060;2024-01-30T15:09:57;16.25;;;4.70;;
61756;SDS011;57225;61.460;24.060;2024-01-30T15:12:42;23.83;;;5.30;;
61756;SDS011;57225;61.460;24.060;2024-01-30T15:15:27;17.50;;;4.68;;
61756;SDS011;57225;61.460;24.060;2024-01-30T15:18:12;12.75;;;4.75;;
61756;SDS011;57225;61.460;24.060;2024-01-30T15:20:56;15.65;;;5.40;;
61756;SDS011;57225;61.460;24.060;2024-01-30T15:23:41;20.40;;;5.20;;
61756;SDS011;57225;61.460;24.060;2024-01-30T15:26:27;15.20;;;4.75;;
61756;SDS011;57225;61.460;24.060;2024-01-30T15:29:11;19.38;;;5.53;;
61756;SDS011;57225;61.460;24.060;2024-01-30T15:31:56;20.20;;;5.30;;
61756;SDS011;57225;61.460;24.060;2024-01-30T15:34:40;22.33;;;6.13;;
61756;SDS011;57225;61.460;24.060;2024-01-30T15:37:25;16.42;;;5.32;;
61756;SDS011;57225;61.460;24.060;2024-01-30T15:40:10;18.25;;;5.63;;
61756;SDS011;57225;61.460;24.060;2024-01-30T15:42:55;18.55;;;5.10;;
61756;SDS011;57225;61.460;24.060;2024-01-30T15:45:39;17.60;;;6.22;;
61756;SDS011;57225;61.460;24.060;2024-01-30T15:48:24;20.20;;;6.35;;
61756;SDS011;57225;61.460;24.060;2024-01-30T15:51:08;21.80;;;5.53;;
61756;SDS011;57225;61.460;24.060;2024-01-30T15:53:53;16.48;;;5.55;;
61756;SDS011;57225;61.460;24.060;2024-01-30T15:56:37;18.40;;;6.05;;
61756;SDS011;57225;61.460;24.060;2024-01-30T15:59:22;20.35;;;5.53;;
61756;SDS011;57225;61.460;24.060;2024-01-30T16:02:06;24.30;;;6.22;;
61756;SDS011;57225;61.460;24.060;2024-01-30T16:04:50;18.40;;;5.22;;
61756;SDS011;57225;61.460;24.060;2024-01-30T16:07:35;17.77;;;5.70;;